Time;durP1;ratioP1;P1;durP2;ratioP2;P2;SDS_P1;SDS_P2;PMS_P1;PMS_P2;Temp;Humidity;BMP_temperature;BMP_pressure;BME280_temperature;BME280_humidity;BME280_pressure;Samples;Min_cycle;Max_cycle;Signal;HPM_P1;HPM_P2
2023/10/30 16:44:19;;;;;;;2.60;1.67;;;13.40;99.90;;;;;;2089420;23;20515;-95
2023/10/30 16:46:20;;;;;;;4.35;2.55;;;13.50;99.90;;;;;;4123300;28;20249;-95
2023/10/30 16:48:30;;;;;;;2.67;1.70;;;13.20;99.90;;;;;;4107054;28;20222;-93
2023/10/30 16:50:34;;;;;;;2.55;1.60;;;13.20;99.90;;;;;;4112181;28;20186;-96
2023/10/30 16:53:13;;;;;;;3.33;1.30;;;13.00;99.90;;;;;;4114174;28;20690;-94
2023/10/30 16:58:32;;;;;;;3.03;1.38;;;12.80;99.90;;;;;;4103753;28;20558;-95
2023/10/30 17:00:52;;;;;;;;;;;;;;;;;;;;;
2023/10/30 17:03:26;;;;;;;2.58;1.45;;;12.90;99.90;;;;;;4118092;28;20583;-95
2023/10/30 17:05:37;;;;;;;2.63;1.42;;;12.90;99.90;;;;;;4102496;29;20231;-95
2023/10/30 17:07:47;;;;;;;5.68;1.67;;;13.20;99.90;;;;;;4119505;28;20174;-96
2023/10/30 17:09:52;;;;;;;3.72;2.13;;;12.90;99.90;;;;;;4107005;29;20203;-96
2023/10/30 17:12:00;;;;;;;5.47;2.17;;;13.00;99.90;;;;;;4104714;29;20167;-95
2023/10/30 17:14:15;;;;;;;10.38;1.92;;;13.10;99.90;;;;;;4105101;29;20194;-96
2023/10/30 17:16:29;;;;;;;3.17;1.88;;;12.80;99.90;;;;;;4105866;28;20210;-94
2023/10/30 17:19:37;;;;;;;5.20;2.33;;;12.60;99.90;;;;;;4118474;28;20189;-96
2023/10/30 17:21:38;;;;;;;3.25;1.83;;;12.70;99.90;;;;;;4087867;29;20196;-95
2023/10/30 17:23:39;;;;;;;4.10;2.70;;;12.70;99.90;;;;;;4089191;29;20664;-95
2023/10/30 17:25:42;;;;;;;4.80;2.10;;;12.70;99.90;;;;;;4088826;29;20222;-95
2023/10/30 17:27:51;;;;;;;4.93;2.58;;;12.90;99.90;;;;;;4091893;29;20656;-95
2023/10/30 17:30:07;;;;;;;3.30;1.65;;;12.70;99.90;;;;;;4103848;29;20226;-93
2023/10/30 17:32:10;;;;;;;1.42;0.93;;;12.60;99.90;;;;;;4100388;28;20277;-92
2023/10/30 17:34:20;;;;;;;11.00;4.97;;;13.00;99.90;;;;;;4087152;29;20182;-96
2023/10/30 17:36:24;;;;;;;11.13;4.60;;;13.10;99.90;;;;;;4086891;29;20226;-93
2023/10/30 17:38:41;;;;;;;2.75;1.60;;;12.70;99.90;;;;;;4084555;29;20218;-95
2023/10/30 17:41:02;;;;;;;6.43;2.30;;;12.50;99.90;;;;;;4102875;28;20378;-94
2023/10/30 17:43:11;;;;;;;2.47;1.17;;;12.40;99.90;;;;;;4086536;29;20719;-95
2023/10/30 17:45:17;;;;;;;2.65;1.20;;;12.30;99.90;;;;;;4100308;29;20187;-94
2023/10/30 17:47:52;;;;;;;10.55;4.13;;;12.20;99.90;;;;;;4097325;29;20195;-96
2023/10/30 17:49:58;;;;;;;18.70;7.63;;;12.10;99.90;;;;;;4097496;28;20654;-93
2023/10/30 17:51:58;;;;;;;24.60;5.65;;;12.20;99.90;;;;;;4100356;29;20182;-96
2023/10/30 17:53:59;;;;;;;42.45;10.70;;;12.20;99.90;;;;;;4084092;29;20667;-96
2023/10/30 17:56:02;;;;;;;10.02;4.18;;;12.20;99.90;;;;;;4084370;29;20260;-93
2023/10/30 17:58:05;;;;;;;5.38;2.30;;;12.20;99.90;;;;;;4100292;29;20190;-96
2023/10/30 18:00:21;;;;;;;2.95;1.17;;;12.30;99.90;;;;;;4097781;29;20187;-94
2023/10/30 18:02:53;;;;;;;8.60;3.63;;;12.30;99.90;;;;;;4111790;28;20566;-94
2023/10/30 18:08:07;;;;;;;3.70;1.88;;;12.30;99.90;;;;;;4115479;28;20574;-94
2023/10/30 18:13:32;;;;;;;4.85;2.28;;;12.50;99.90;;;;;;4100022;29;20258;-94
2023/10/30 18:15:35;;;;;;;4.85;2.38;;;12.70;99.90;;;;;;4084217;29;20258;-94
2023/10/30 18:17:40;;;;;;;9.23;3.58;;;12.80;99.90;;;;;;4115863;28;20266;-96
2023/10/30 18:19:49;;;;;;;10.50;3.67;;;12.70;99.90;;;;;;4099872;29;20214;-93
2023/10/30 18:22:03;;;;;;;2.92;1.77;;;12.70;99.90;;;;;;4084441;29;20219;-95
2023/10/30 18:24:30;;;;;;;4.25;1.67;;;12.70;99.90;;;;;;4100765;28;20229;-93
2023/10/30 18:26:42;;;;;;;21.73;6.82;;;12.80;99.90;;;;;;4084684;29;20183;-95
2023/10/30 18:28:58;;;;;;;2.15;1.30;;;12.90;99.90;;;;;;4084232;29;20680;-93
2023/10/30 18:31:12;;;;;;;6.03;2.45;;;12.80;99.90;;;;;;4100069;29;20190;-96
2023/10/30 18:33:20;;;;;;;4.75;1.33;;;12.90;99.90;;;;;;4083804;29;20786;-94
2023/10/30 18:35:39;;;;;;;3.47;1.33;;;12.90;99.90;;;;;;4084178;29;20604;-95
2023/10/30 18:37:45;;;;;;;1.65;1.00;;;12.80;99.90;;;;;;4099676;29;20667;-93
2023/10/30 18:39:49;;;;;;;17.58;6.72;;;12.60;99.90;;;;;;4084970;29;20234;-95
2023/10/30 18:42:27;;;;;;;7.13;2.78;;;12.50;99.90;;;;;;4099922;29;20183;-93
2023/10/30 18:44:50;;;;;;;2.28;1.30;;;12.60;99.90;;;;;;4096523;28;20195;-94
2023/10/30 18:47:15;;;;;;;4.50;1.77;;;12.70;99.90;;;;;;4083915;29;20183;-96
2023/10/30 18:50:12;;;;;;;;;;;;;;;;;;;;;
2023/10/30 18:56:21;;;;;;;2.58;1.27;;;12.50;99.90;;;;;;4101952;29;20222;-96
2023/10/30 19:20:05;;;;;;;2.30;1.08;;;12.50;99.90;;;;;;4110438;29;20223;-96
2023/10/30 19:22:15;;;;;;;2.70;1.00;;;12.60;99.90;;;;;;4081976;29;20191;-96
2023/10/30 19:24:24;;;;;;;7.13;2.70;;;12.70;99.90;;;;;;4097079;28;20183;-95
2023/10/30 19:26:47;;;;;;;1.52;1.08;;;12.60;99.90;;;;;;4112997;28;20242;-95
2023/10/30 20:38:37;;;;;;;3.20;0.88;;;12.20;99.90;;;;;;1283173;23;21822;31
2023/10/30 20:41:36;;;;;;;1.05;0.73;;;11.90;99.90;;;;;;4079285;29;20203;-96
2023/10/30 20:44:26;;;;;;;;;;;;;;;;;;;;;
